Time;durP1;ratioP1;P1;durP2;ratioP2;P2;SDS_P1;SDS_P2;PMS_P1;PMS_P2;Temp;Humidity;BMP_temperature;BMP_pressure;BME280_temperature;BME280_humidity;BME280_pressure;Samples;Min_cycle;Max_cycle;Signal;HPM_P1;HPM_P2
2022/07/23 00:00:25;;;;;;;;;25.25;23.75;;;;;23.34;61.97;101272.81;4941803;28;45254;-66
2022/07/23 00:02:50;;;;;;;;;25.75;21.25;;;;;23.33;62.14;101270.13;4935181;28;45540;-64
2022/07/23 00:05:16;;;;;;;;;16.33;16.33;;;;;23.40;62.07;101277.25;4935986;28;44921;-64
2022/07/23 00:07:41;;;;;;;;;23.33;20.00;;;;;23.40;62.23;101270.91;4944775;28;45038;-65
2022/07/23 00:10:07;;;;;;;;;24.00;21.67;;;;;23.27;62.06;101249.31;4938333;28;45155;-64
2022/07/23 00:12:33;;;;;;;;;17.67;15.33;;;;;23.33;61.64;101260.13;4935588;28;45554;-63
2022/07/23 00:14:58;;;;;;;;;27.67;21.33;;;;;23.42;61.59;101278.13;4943341;28;45170;-64
2022/07/23 00:17:23;;;;;;;;;16.67;15.00;;;;;23.43;61.80;101285.41;4950986;28;45205;-66
2022/07/23 00:19:49;;;;;;;;;21.67;19.67;;;;;23.43;61.53;101268.09;4944709;28;45083;-64
2022/07/23 00:22:14;;;;;;;;;20.67;18.00;;;;;23.43;61.57;101270.84;4937924;28;45173;-65
2022/07/23 00:24:39;;;;;;;;;21.33;20.00;;;;;23.34;61.57;101261.00;4935415;28;44960;-70
2022/07/23 00:27:05;;;;;;;;;17.67;16.67;;;;;23.35;61.96;101262.81;4947581;28;45102;-62
2022/07/23 00:29:30;;;;;;;;;20.00;17.33;;;;;23.37;61.82;101267.31;4935898;28;45115;-65
2022/07/23 00:31:56;;;;;;;;;19.33;17.33;;;;;23.23;61.55;101236.69;4935392;28;46215;-68
2022/07/23 00:34:21;;;;;;;;;17.67;17.33;;;;;23.37;61.46;101263.69;4934346;28;45005;-65
2022/07/23 00:36:46;;;;;;;;;17.67;17.00;;;;;23.40;61.22;101266.34;4942849;28;45304;-66
2022/07/23 00:39:12;;;;;;;;;21.33;16.33;;;;;23.32;61.58;101258.31;4939533;28;45125;-66
2022/07/23 00:41:37;;;;;;;;;20.67;18.33;;;;;23.40;61.67;101265.47;4940977;28;45229;-63
2022/07/23 00:44:19;;;;;;;;;14.67;14.67;;;;;23.35;61.50;101268.28;4935279;28;45033;-63
2022/07/23 00:46:52;;;;;;;;;19.33;16.00;;;;;23.37;61.19;101263.69;4934810;28;44970;-62
2022/07/23 00:49:19;;;;;;;;;16.33;16.00;;;;;23.39;61.63;101266.38;4939891;28;45158;-64
2022/07/23 00:51:44;;;;;;;;;20.67;16.67;;;;;23.35;61.38;101262.81;4941175;28;45213;-64
2022/07/23 00:54:10;;;;;;;;;16.33;15.00;;;;;23.34;61.70;101261.91;4934286;28;44973;-63
2022/07/23 00:56:35;;;;;;;;;21.00;17.33;;;;;23.38;61.51;101262.78;4938961;28;45033;-64
2022/07/23 00:59:01;;;;;;;;;20.67;16.33;;;;;23.14;61.20;101234.13;4944693;28;44995;-65
2022/07/23 01:01:26;;;;;;;;;21.00;15.67;;;;;23.36;61.42;101259.16;4934486;28;45152;-63
2022/07/23 01:03:52;;;;;;;;;20.67;18.00;;;;;23.37;61.57;101250.06;4934810;28;45203;-64
2022/07/23 01:06:17;;;;;;;;;21.67;17.00;;;;;23.34;62.07;101256.44;4935904;28;44971;-64
2022/07/23 01:08:42;;;;;;;;;21.00;17.67;;;;;23.37;61.68;101258.22;4942187;28;45029;-62
2022/07/23 01:11:08;;;;;;;;;16.67;15.67;;;;;23.40;61.78;101266.34;4934451;28;45746;-63
2022/07/23 01:13:34;;;;;;;;;21.67;20.67;;;;;23.39;62.07;101260.94;4934563;28;45020;-63
2022/07/23 01:15:59;;;;;;;;;24.33;21.33;;;;;23.39;62.69;101260.94;4934405;28;45080;-63
2022/07/23 01:18:25;;;;;;;;;28.25;22.25;;;;;23.28;63.18;101253.84;4947492;28;45034;-65
2022/07/23 01:20:50;;;;;;;;;29.67;24.33;;;;;23.32;63.11;101258.31;4934754;28;45075;-63
2022/07/23 01:23:15;;;;;;;;;26.67;21.00;;;;;23.29;62.99;101252.91;4936159;28;45184;-65
2022/07/23 01:25:49;;;;;;;;;25.67;23.00;;;;;23.25;63.67;101248.44;4932878;28;45423;-62
2022/07/23 01:28:14;;;;;;;;;22.00;19.00;;;;;23.30;63.16;101260.16;4938402;28;44927;-62
2022/07/23 01:30:39;;;;;;;;;26.00;21.00;;;;;23.22;63.25;101234.88;4933949;28;45609;-62
2022/07/23 01:33:05;;;;;;;;;17.33;16.67;;;;;22.96;63.01;101183.53;4934113;28;48336;-65
2022/07/23 01:35:30;;;;;;;;;19.33;17.00;;;;;23.35;62.98;101251.91;4934419;28;45159;-65
2022/07/23 01:37:55;;;;;;;;;22.00;18.00;;;;;23.35;63.17;101258.25;4941259;28;45425;-66
2022/07/23 01:40:21;;;;;;;;;26.00;22.00;;;;;23.37;63.01;101259.13;4949836;28;46109;-66
2022/07/23 01:42:46;;;;;;;;;26.67;19.00;;;;;23.39;62.95;101253.63;4934202;28;45204;-64
2022/07/23 01:45:12;;;;;;;;;23.00;20.33;;;;;23.42;62.48;101256.31;4934091;28;45488;-63
2022/07/23 01:47:37;;;;;;;;;22.67;19.67;;;;;23.40;62.70;101255.44;4942015;28;44859;-63
2022/07/23 01:50:03;;;;;;;;;21.67;20.00;;;;;23.35;62.99;101247.34;4933718;28;46043;-62
2022/07/23 01:52:28;;;;;;;;;22.00;18.67;;;;;23.39;63.16;101256.38;4933852;28;45124;-62
2022/07/23 01:54:53;;;;;;;;;25.50;23.00;;;;;23.08;63.63;101206.97;4934071;28;44923;-63
2022/07/23 01:57:19;;;;;;;;;25.00;22.00;;;;;23.16;63.56;101214.09;4936065;28;45052;-64
2022/07/23 01:59:44;;;;;;;;;32.75;25.25;;;;;23.34;63.71;101252.81;4940192;28;45917;-63
2022/07/23 02:02:09;;;;;;;;;28.75;24.50;;;;;23.20;63.57;101223.09;4931315;28;45133;-64
2022/07/23 02:04:36;;;;;;;;;22.75;22.00;;;;;23.25;63.58;101229.38;4932446;28;45408;-63
2022/07/23 02:07:02;;;;;;;;;26.75;23.50;;;;;23.34;64.07;101240.09;4941233;28;45195;-63
2022/07/23 02:09:28;;;;;;;;;28.00;26.00;;;;;23.21;64.30;101221.28;4933659;28;45620;-64
2022/07/23 02:11:53;;;;;;;;;33.00;23.67;;;;;23.33;64.16;101242.88;4933989;28;45068;-63
2022/07/23 02:14:18;;;;;;;;;26.00;23.50;;;;;23.34;64.21;101248.25;4933812;28;45151;-62
2022/07/23 02:16:44;;;;;;;;;23.67;22.33;;;;;23.29;64.05;101236.53;4940357;28;45087;-64
2022/07/23 02:19:09;;;;;;;;;34.25;27.25;;;;;23.33;64.22;101249.22;4951585;28;45645;-62
2022/07/23 02:21:35;;;;;;;;;32.33;25.33;;;;;23.34;64.12;101251.00;4935181;28;45184;-64
2022/07/23 02:24:01;;;;;;;;;27.33;26.33;;;;;23.34;63.68;101248.25;4932519;28;45018;-63
2022/07/23 02:26:26;;;;;;;;;25.33;25.00;;;;;23.34;64.08;101250.09;4938431;28;45152;-63
2022/07/23 02:28:52;;;;;;;;;26.25;24.00;;;;;23.30;63.93;101249.25;4933525;28;45183;-63
2022/07/23 02:31:18;;;;;;;;;32.00;25.67;;;;;23.24;63.74;101253.94;4933080;28;45282;-63
2022/07/23 02:33:43;;;;;;;;;33.75;31.00;;;;;23.30;64.08;101260.16;4936812;28;45176;-63
2022/07/23 02:36:09;;;;;;;;;27.00;27.00;;;;;23.31;64.22;101255.59;4946011;28;44913;-63
2022/07/23 02:38:34;;;;;;;;;30.25;22.25;;;;;23.33;63.90;101260.13;4937041;28;45522;-64
2022/07/23 02:40:59;;;;;;;;;26.67;22.00;;;;;23.24;63.50;101256.66;4932404;28;45016;-63
2022/07/23 02:43:25;;;;;;;;;26.00;21.33;;;;;23.32;63.90;101258.31;4933563;28;44961;-66
2022/07/23 02:45:50;;;;;;;;;18.33;16.67;;;;;23.39;63.64;101272.72;4934827;28;45218;-62
2022/07/23 02:48:15;;;;;;;;;25.33;18.00;;;;;23.34;63.39;101256.44;4938741;28;46107;-65
2022/07/23 02:50:41;;;;;;;;;21.33;20.67;;;;;23.40;63.41;101277.25;4931716;28;45004;-63
2022/07/23 02:53:06;;;;;;;;;22.00;19.50;;;;;23.31;63.17;101272.88;4930735;28;45182;-63
2022/07/23 02:55:31;;;;;;;;;23.67;21.33;;;;;23.34;63.30;101269.19;4931061;28;45676;-63
2022/07/23 02:57:57;;;;;;;;;27.67;20.67;;;;;23.18;63.06;101252.19;4943890;28;45152;-61
2022/07/23 03:00:22;;;;;;;;;22.00;22.00;;;;;23.25;62.50;101274.81;4933562;28;45083;-66
2022/07/23 03:02:48;;;;;;;;;24.00;20.00;;;;;23.22;62.82;101278.50;4933541;28;45025;-63
2022/07/23 03:05:13;;;;;;;;;18.00;15.67;;;;;23.05;62.38;101253.31;4926308;28;45507;-64
2022/07/23 03:07:38;;;;;;;;;27.00;18.00;;;;;23.22;62.34;101289.41;4945609;28;45659;-63
2022/07/23 03:10:04;;;;;;;;;18.67;15.67;;;;;23.23;62.54;101285.75;4930904;28;45294;-63
2022/07/23 03:12:29;;;;;;;;;44.75;37.25;;;;;23.23;62.26;101287.56;4943629;28;45414;-63
2022/07/23 03:14:55;;;;;;;;;19.67;19.67;;;;;23.23;62.05;101285.75;4941185;28;45019;-64
2022/07/23 03:17:20;;;;;;;;;23.00;20.00;;;;;23.22;62.11;101289.41;4942163;28;49971;-66
2022/07/23 03:19:45;;;;;;;;;22.33;20.33;;;;;23.19;61.93;101292.19;4937309;28;49611;-63
2022/07/23 03:22:11;;;;;;;;;23.00;21.67;;;;;23.14;62.19;101297.69;4935827;28;45098;-63
2022/07/23 03:24:54;;;;;;;;;17.67;16.33;;;;;23.12;62.67;101296.84;4936076;28;45013;-65
2022/07/23 03:27:21;;;;;;;;;24.67;23.33;;;;;22.92;62.71;101264.44;4944299;28;45839;-63
2022/07/23 03:29:46;;;;;;;;;16.33;15.33;;;;;23.09;62.39;101305.06;4937528;28;45385;-64
2022/07/23 03:32:11;;;;;;;;;18.33;16.00;;;;;23.09;62.48;101301.44;4935900;28;45173;-62
2022/07/23 03:34:37;;;;;;;;;20.33;19.00;;;;;23.00;62.36;101287.00;4936432;28;44970;-67
2022/07/23 03:37:03;;;;;;;;;19.00;16.00;;;;;22.90;62.29;101274.47;4944523;28;45986;-64
2022/07/23 03:39:28;;;;;;;;;20.67;18.67;;;;;22.90;62.06;101276.25;4936178;28;45065;-64
2022/07/23 03:41:54;;;;;;;;;18.67;17.67;;;;;22.96;62.09;101295.25;4936021;28;45068;-65
2022/07/23 03:44:19;;;;;;;;;18.33;16.67;;;;;22.90;62.02;101299.00;4936263;28;44913;-62
2022/07/23 03:46:48;;;;;;;;;17.00;14.67;;;;;22.75;61.96;101282.88;4944845;28;45708;-63
2022/07/23 03:49:13;;;;;;;;;20.00;17.00;;;;;22.79;62.21;101310.03;4937830;28;45155;-65
2022/07/23 03:51:38;;;;;;;;;16.00;13.00;;;;;22.74;62.35;101302.88;4943712;28;46488;-66
2022/07/23 03:54:04;;;;;;;;;15.67;15.67;;;;;22.62;62.76;101315.75;4935956;28;45084;-63
2022/07/23 03:56:29;;;;;;;;;18.00;15.67;;;;;22.55;62.71;101316.75;4936182;28;45964;-63
2022/07/23 03:58:54;;;;;;;;;18.00;16.33;;;;;22.48;62.61;101300.53;4935626;28;45225;-63
2022/07/23 04:01:20;;;;;;;;;19.00;17.00;;;;;22.54;62.56;101314.97;4935266;28;44974;-63
2022/07/23 04:03:46;;;;;;;;;17.67;17.00;;;;;22.55;62.35;101303.13;4941173;28;45154;-65
2022/07/23 04:06:11;;;;;;;;;16.00;12.00;;;;;22.29;62.11;101265.41;4940924;28;46906;-64
2022/07/23 04:08:37;;;;;;;;;14.00;13.67;;;;;22.57;61.70;101325.81;4952125;28;44897;-65
2022/07/23 04:11:02;;;;;;;;;16.33;16.33;;;;;22.36;61.98;101309.78;4937633;28;44877;-64
2022/07/23 04:13:27;;;;;;;;;17.67;13.00;;;;;22.32;62.10;101316.16;4926409;28;45376;-63
2022/07/23 04:15:53;;;;;;;;;22.33;19.00;;;;;22.34;62.36;101327.94;4939936;28;46358;-62
2022/07/23 04:18:18;;;;;;;;;20.00;17.33;;;;;22.33;62.37;101323.41;4946353;28;51308;-62
2022/07/23 04:20:44;;;;;;;;;14.00;14.00;;;;;22.30;62.48;101326.19;4937509;28;45372;-61
2022/07/23 04:23:10;;;;;;;;;19.33;17.67;;;;;22.17;62.59;101312.69;4935723;28;45033;-66
2022/07/23 04:25:35;;;;;;;;;16.00;12.67;;;;;22.19;62.85;101310.88;4940018;28;45185;-64
2022/07/23 04:28:01;;;;;;;;;15.33;14.00;;;;;22.29;62.66;101322.56;4940910;28;45194;-65
2022/07/23 04:30:26;;;;;;;;;18.00;15.33;;;;;22.33;62.56;101331.59;4934783;28;45263;-64
2022/07/23 04:32:51;;;;;;;;;15.33;12.67;;;;;22.38;62.57;101327.88;4939474;28;45141;-63
2022/07/23 04:35:17;;;;;;;;;18.67;15.67;;;;;22.44;62.52;101337.78;4937708;28;45096;-64
2022/07/23 04:37:42;;;;;;;;;15.00;14.00;;;;;22.48;62.16;101328.66;4935166;28;45014;-64
2022/07/23 04:40:08;;;;;;;;;17.67;14.67;;;;;22.05;62.08;101253.88;4938161;28;45014;-64
2022/07/23 04:42:33;;;;;;;;;13.00;11.67;;;;;22.46;61.90;101319.63;4936010;28;45033;-65
2022/07/23 04:44:59;;;;;;;;;16.00;14.00;;;;;22.52;61.77;101329.50;4941025;28;45810;-66
2022/07/23 04:47:24;;;;;;;;;14.67;13.00;;;;;22.12;61.71;101265.56;4933614;28;45350;-65
2022/07/23 04:49:49;;;;;;;;;16.33;14.00;;;;;22.58;61.46;101333.03;4934817;28;45071;-65
2022/07/23 04:52:15;;;;;;;;;17.33;14.33;;;;;22.64;61.16;101337.53;4934984;28;45103;-63
2022/07/23 04:54:40;;;;;;;;;12.33;11.00;;;;;22.65;61.24;101336.56;4934969;28;45943;-64
2022/07/23 04:57:06;;;;;;;;;18.33;15.67;;;;;22.69;60.93;101335.63;4934698;28;44989;-63
2022/07/23 04:59:31;;;;;;;;;21.67;16.33;;;;;22.73;60.81;101348.25;4942144;28;45436;-63
2022/07/23 05:01:56;;;;;;;;;17.67;14.00;;;;;22.76;60.62;101341.88;4934420;28;44970;-63
2022/07/23 05:04:22;;;;;;;;;13.00;13.00;;;;;22.79;60.46;101333.66;4945212;28;45426;-66
2022/07/23 05:06:47;;;;;;;;;18.00;15.00;;;;;22.82;60.50;101333.63;4934667;28;45151;-64
2022/07/23 05:09:12;;;;;;;;;18.33;15.00;;;;;22.86;60.19;101343.53;4934672;28;44985;-65
2022/07/23 05:11:38;;;;;;;;;63.25;51.25;;;;;22.78;60.22;101310.94;4934961;28;45011;-65
2022/07/23 05:14:03;;;;;;;;;17.67;17.67;;;;;22.99;59.78;101346.97;4944557;28;45171;-63
2022/07/23 05:16:28;;;;;;;;;17.33;13.67;;;;;22.99;59.27;101342.41;4936329;28;44944;-62
2022/07/23 05:18:54;;;;;;;;;15.67;13.67;;;;;22.79;59.20;101320.94;4945808;28;45162;-66
2022/07/23 05:21:19;;;;;;;;;15.00;13.67;;;;;22.99;59.20;101349.72;4947414;28;45326;-64
2022/07/23 05:23:45;;;;;;;;;14.33;14.33;;;;;23.03;58.85;101347.81;4924457;28;51880;-63
2022/07/23 05:26:10;;;;;;;;;22.33;15.00;;;;;23.02;58.45;101348.78;4941227;28;45158;-62
2022/07/23 05:28:35;;;;;;;;;15.00;14.00;;;;;22.99;58.52;101344.25;4933774;28;45184;-64
2022/07/23 05:31:01;;;;;;;;;15.67;15.67;;;;;22.96;58.90;101338.84;4934405;28;45219;-63
2022/07/23 05:33:26;;;;;;;;;20.00;13.33;;;;;22.84;58.81;101309.97;4933819;28;45622;-62
2022/07/23 05:35:52;;;;;;;;;19.67;13.67;;;;;22.97;58.44;101337.94;4936647;28;45430;-64
2022/07/23 05:38:17;;;;;;;;;15.67;14.00;;;;;22.85;59.11;101343.56;4938037;28;45402;-66
2022/07/23 05:40:42;;;;;;;;;18.67;13.33;;;;;22.73;59.38;101340.09;4933118;28;44896;-64
2022/07/23 05:43:08;;;;;;;;;15.00;14.33;;;;;22.51;59.84;101325.88;4931000;28;45374;-63
2022/07/23 05:45:33;;;;;;;;;17.00;15.67;;;;;22.60;60.26;101333.03;4940472;28;45130;-64
2022/07/23 05:47:58;;;;;;;;;19.67;16.33;;;;;22.54;60.46;101322.25;4933254;28;47598;-64
2022/07/23 05:50:24;;;;;;;;;19.67;17.00;;;;;22.45;60.69;101301.47;4943783;28;45290;-64
2022/07/23 05:52:49;;;;;;;;;26.33;17.67;;;;;22.48;60.66;101306.88;4951389;28;45254;-63
2022/07/23 05:55:14;;;;;;;;;18.00;18.00;;;;;22.61;60.59;101348.44;4948704;28;45226;-64
2022/07/23 05:57:41;;;;;;;;;15.33;13.33;;;;;22.45;60.90;101325.97;4941182;28;45372;-64
2022/07/23 06:00:08;;;;;;;;;14.67;14.00;;;;;22.64;60.83;101356.59;4931478;28;45096;-66
2022/07/23 06:02:33;;;;;;;;;14.67;12.67;;;;;22.72;60.77;101353.72;4931418;28;45781;-63
2022/07/23 06:04:58;;;;;;;;;20.67;18.67;;;;;22.77;60.85;101360.94;4931484;28;45300;-64
2022/07/23 06:07:24;;;;;;;;;20.67;16.67;;;;;22.82;60.77;101358.16;4931037;28;45265;-65
2022/07/23 06:09:49;;;;;;;;;25.67;21.67;;;;;22.89;60.57;101351.66;4930947;28;45409;-65
2022/07/23 06:12:18;;;;;;;;;22.33;20.00;;;;;22.95;60.36;101358.84;4930769;28;45592;-65
2022/07/23 06:14:43;;;;;;;;;27.67;21.67;;;;;22.86;60.50;101331.75;4941692;28;45280;-64
2022/07/23 06:17:08;;;;;;;;;24.33;23.00;;;;;22.84;60.82;101342.66;4943732;28;45065;-63
2022/07/23 06:19:34;;;;;;;;;24.25;23.25;;;;;22.89;60.96;101365.28;4946098;28;45117;-63
2022/07/23 06:21:59;;;;;;;;;28.75;22.25;;;;;22.91;61.09;101365.28;4933816;28;46605;-64
2022/07/23 06:24:25;;;;;;;;;23.50;22.00;;;;;22.84;60.88;101353.56;4943096;28;45221;-63
2022/07/23 06:26:50;;;;;;;;;25.33;20.00;;;;;22.84;61.01;101361.75;4935076;28;44930;-63
2022/07/23 06:29:15;;;;;;;;;28.67;23.67;;;;;22.80;61.40;101340.91;4930155;28;45475;-62
2022/07/23 06:31:41;;;;;;;;;36.00;31.75;;;;;22.94;61.07;101370.69;4940559;28;45426;-63
2022/07/23 06:34:06;;;;;;;;;37.00;29.75;;;;;23.00;61.47;101385.13;4936525;28;45060;-64
2022/07/23 06:36:31;;;;;;;;;27.50;26.00;;;;;22.99;61.57;101383.31;4938156;28;45156;-64
2022/07/23 06:38:57;;;;;;;;;38.25;30.75;;;;;22.99;61.64;101386.03;4931957;28;45170;-65
2022/07/23 06:41:22;;;;;;;;;40.75;33.00;;;;;22.87;61.83;101375.31;4931092;28;45670;-63
2022/07/23 06:43:48;;;;;;;;;33.00;29.75;;;;;22.91;62.01;101390.69;4943122;28;46366;-62
2022/07/23 06:46:13;;;;;;;;;35.75;32.25;;;;;22.76;62.19;101370.00;4931585;28;45210;-65
2022/07/23 06:48:38;;;;;;;;;37.00;30.50;;;;;22.83;62.68;101392.63;4933813;28;45682;-63
2022/07/23 06:51:04;;;;;;;;;37.00;32.00;;;;;22.80;62.88;101389.94;4939934;28;45879;-63
2022/07/23 06:53:30;;;;;;;;;39.75;32.75;;;;;22.84;62.95;101390.81;4931151;28;44988;-62
2022/07/23 06:55:55;;;;;;;;;37.50;31.50;;;;;22.87;62.82;101393.47;4947093;28;45175;-63
2022/07/23 06:58:20;;;;;;;;;40.00;33.00;;;;;22.87;62.91;101388.03;4958280;28;44981;-63
2022/07/23 07:00:46;;;;;;;;;39.50;32.25;;;;;22.90;62.88;101396.16;4937691;28;47335;-63
2022/07/23 07:03:11;;;;;;;;;42.50;33.25;;;;;22.89;63.01;101395.28;4957476;28;45122;-63
2022/07/23 07:05:37;;;;;;;;;47.75;34.75;;;;;23.00;63.38;101404.19;4952821;28;45265;-63
2022/07/23 07:08:02;;;;;;;;;47.50;37.25;;;;;23.09;63.06;101402.28;4940334;28;45114;-63
2022/07/23 07:10:28;;;;;;;;;44.25;34.50;;;;;22.97;62.75;101374.25;4945962;28;45227;-62
2022/07/23 07:12:53;;;;;;;;;33.25;32.25;;;;;23.19;62.34;101409.41;4944505;28;46176;-62
2022/07/23 07:15:18;;;;;;;;;37.00;33.50;;;;;23.24;62.23;101401.16;4943587;28;45157;-62
2022/07/23 07:17:44;;;;;;;;;36.50;32.75;;;;;23.05;62.05;101359.59;4955010;28;45776;-64
2022/07/23 07:20:09;;;;;;;;;41.25;33.50;;;;;23.44;61.70;101423.53;4950274;28;45299;-64
2022/07/23 07:22:35;;;;;;;;;43.25;35.25;;;;;23.54;61.41;101419.75;4941334;28;45271;-62
2022/07/23 07:25:00;;;;;;;;;48.00;35.25;;;;;23.58;61.39;101419.66;4921546;28;45163;-63
2022/07/23 07:27:26;;;;;;;;;38.00;33.00;;;;;23.63;60.97;101425.97;4958738;28;45347;-63
2022/07/23 07:29:52;;;;;;;;;46.00;34.50;;;;;23.66;61.01;101431.34;4952376;28;45041;-66
2022/07/23 07:32:17;;;;;;;;;38.25;33.50;;;;;23.69;61.22;101425.84;4938681;28;48327;-66
2022/07/23 07:34:42;;;;;;;;;47.75;36.75;;;;;23.75;60.93;101431.19;4948575;28;45123;-63
2022/07/23 07:37:08;;;;;;;;;41.75;35.50;;;;;23.76;61.11;101432.09;4950240;28;45087;-64
2022/07/23 07:39:33;;;;;;;;;44.00;34.00;;;;;23.80;60.61;101440.22;4946328;28;45547;-64
2022/07/23 07:41:58;;;;;;;;;44.75;36.25;;;;;23.87;60.54;101427.38;4949658;28;44987;-63
2022/07/23 07:44:23;;;;;;;;;42.75;34.00;;;;;23.89;60.04;101428.25;4945423;28;45056;-62
2022/07/23 07:46:49;;;;;;;;;38.50;34.25;;;;;23.96;60.29;101435.41;4951256;28;45119;-62
2022/07/23 07:49:17;;;;;;;;;38.75;31.75;;;;;24.01;59.49;101436.22;4942592;28;45914;-65
2022/07/23 07:51:42;;;;;;;;;45.25;34.25;;;;;23.85;59.81;101421.97;4951514;28;45299;-63
2022/07/23 07:54:07;;;;;;;;;42.50;35.00;;;;;23.92;60.03;101437.31;4957118;28;45174;-63
2022/07/23 07:56:33;;;;;;;;;43.75;32.75;;;;;23.98;60.12;101435.41;4962222;28;44668;-63
2022/07/23 07:58:58;;;;;;;;;60.00;45.50;;;;;24.04;59.49;101447.09;4934164;28;46124;-63
2022/07/23 08:01:23;;;;;;;;;40.50;33.75;;;;;24.06;59.36;101445.22;4942378;28;45017;-64
2022/07/23 08:03:49;;;;;;;;;34.50;32.50;;;;;24.09;58.82;101442.44;4942209;28;44993;-63
2022/07/23 08:06:14;;;;;;;;;50.25;38.75;;;;;24.16;59.33;101445.06;4935616;28;45120;-63
2022/07/23 08:08:39;;;;;;;;;48.50;37.25;;;;;24.06;59.62;101426.13;4930500;28;50383;-65
2022/07/23 08:11:05;;;;;;;;;39.50;33.50;;;;;24.13;59.49;101447.84;4932285;28;45286;-62
2022/07/23 08:13:30;;;;;;;;;48.25;36.00;;;;;24.14;59.37;101449.63;4941632;28;45250;-64
2022/07/23 08:15:55;;;;;;;;;46.75;35.25;;;;;24.10;59.18;101440.59;4930555;28;45400;-62
2022/07/23 08:18:21;;;;;;;;;48.25;37.00;;;;;24.06;59.23;101426.13;4946280;28;45512;-65
2022/07/23 08:20:46;;;;;;;;;47.75;38.50;;;;;24.29;58.93;101441.19;4940434;28;45210;-63
2022/07/23 08:23:12;;;;;;;;;47.00;37.00;;;;;24.30;58.17;101445.69;4948144;28;45403;-65
2022/07/23 08:25:41;;;;;;;;;44.75;34.25;;;;;24.29;58.67;101449.38;4946281;28;45675;-62
2022/07/23 08:28:09;;;;;;;;;46.00;34.25;;;;;24.29;58.12;101449.38;4949556;28;45718;-63
2022/07/23 08:30:35;;;;;;;;;53.25;41.50;;;;;24.23;58.37;101444.91;4952823;28;45041;-63
2022/07/23 08:33:04;;;;;;;;;43.75;35.00;;;;;24.26;58.40;101436.66;4953697;28;45178;-63
2022/07/23 08:35:34;;;;;;;;;33.50;31.00;;;;;24.52;57.52;101468.03;4944036;28;45263;-65
2022/07/23 08:38:02;;;;;;;;;41.25;32.50;;;;;24.55;56.89;101465.28;4939948;28;45453;-65
2022/07/23 08:40:30;;;;;;;;;36.50;32.25;;;;;24.56;56.43;101471.63;4935096;28;45330;-64
2022/07/23 08:42:56;;;;;;;;;48.00;34.25;;;;;24.29;57.16;101431.13;4945458;28;44940;-66
2022/07/23 08:45:23;;;;;;;;;47.00;36.75;;;;;24.59;56.53;101468.84;4937166;28;45060;-62
2022/07/23 08:47:54;;;;;;;;;38.00;33.25;;;;;24.60;55.98;101481.53;4943261;28;45199;-63
2022/07/23 08:50:20;;;;;;;;;33.00;25.25;;;;;24.63;55.84;101476.03;4946047;28;45359;-63
2022/07/23 08:52:47;;;;;;;;;36.75;31.00;;;;;24.65;56.24;101466.00;4944501;28;45103;-62
2022/07/23 08:55:15;;;;;;;;;56.00;45.25;;;;;24.88;56.05;101480.97;4932135;28;45207;-63
2022/07/23 08:57:41;;;;;;;;;44.75;34.00;;;;;24.94;55.40;101469.91;4932257;28;45449;-66
2022/07/23 09:00:07;;;;;;;;;43.75;33.50;;;;;25.02;55.84;101479.75;4932564;28;45103;-63
2022/07/23 09:02:38;;;;;;;;;41.75;35.00;;;;;25.05;55.47;101481.53;4933763;28;45295;-64
2022/07/23 09:05:04;;;;;;;;;43.50;32.25;;;;;24.97;55.17;101456.19;4940678;28;45335;-63
2022/07/23 09:07:30;;;;;;;;;38.50;29.50;;;;;25.18;54.84;101480.31;4931506;28;45546;-64
2022/07/23 09:10:10;;;;;;;;;36.00;30.50;;;;;25.14;54.51;101459.41;4931895;28;44974;-63
2022/07/23 09:12:35;;;;;;;;;39.50;32.50;;;;;25.18;53.92;101444.75;4933531;28;45102;-65
2022/07/23 09:15:08;;;;;;;;;38.25;32.25;;;;;25.41;53.66;101478.91;4942100;28;44934;-66
2022/07/23 09:17:41;;;;;;;;;40.50;32.25;;;;;25.37;53.70;101458.03;4946676;28;45209;-66
2022/07/23 09:20:09;;;;;;;;;44.75;33.50;;;;;25.34;53.19;101436.22;4933950;28;45159;-67
2022/07/23 09:22:34;;;;;;;;;37.25;32.00;;;;;25.57;53.30;101471.22;4932301;28;45072;-64
2022/07/23 09:25:09;;;;;;;;;41.25;30.75;;;;;25.54;52.64;101471.28;4932969;28;45502;-64
2022/07/23 09:27:52;;;;;;;;;33.75;28.25;;;;;25.47;52.73;101469.66;4940755;28;45764;-64
2022/07/23 09:30:18;;;;;;;;;40.00;30.75;;;;;25.51;52.74;101469.53;4933418;28;45112;-65
2022/07/23 09:32:44;;;;;;;;;37.50;31.00;;;;;25.40;53.08;101452.47;4933619;28;45053;-63
2022/07/23 09:35:09;;;;;;;;;28.50;26.00;;;;;25.57;52.96;101471.22;4933572;28;44911;-67
2022/07/23 09:37:35;;;;;;;;;38.25;31.00;;;;;25.59;52.66;101473.91;4932838;28;45542;-62
2022/07/23 09:40:11;;;;;;;;;37.75;30.00;;;;;25.60;52.97;101479.34;4933097;28;45151;-64
2022/07/23 09:42:37;;;;;;;;;31.50;29.00;;;;;25.64;52.97;101466.50;4933276;28;45124;-64
2022/07/23 09:45:03;;;;;;;;;46.00;36.50;;;;;25.79;52.70;101473.41;4933547;28;44964;-63
2022/07/23 09:47:31;;;;;;;;;35.75;28.00;;;;;25.81;52.48;101464.25;4944305;28;45981;-64
2022/07/23 09:50:06;;;;;;;;;44.25;31.00;;;;;25.91;51.96;101470.38;4932120;28;44992;-63
2022/07/23 09:52:47;;;;;;;;;39.50;32.75;;;;;25.64;51.97;101436.38;4931587;28;45120;-66
2022/07/23 09:55:13;;;;;;;;;37.50;31.75;;;;;25.79;51.97;101460.66;4931463;28;45040;-66
2022/07/23 09:57:41;;;;;;;;;32.00;29.50;;;;;25.89;51.36;101455.84;4931618;28;45615;-64
2022/07/23 10:00:11;;;;;;;;;42.25;33.25;;;;;25.96;51.56;101468.44;4919743;28;45564;-63
2022/07/23 10:02:38;;;;;;;;;34.50;30.25;;;;;25.73;51.07;101438.91;4932270;28;45230;-64
2022/07/23 10:05:04;;;;;;;;;37.75;31.50;;;;;25.70;51.57;101459.03;4932983;28;45155;-62
2022/07/23 10:07:35;;;;;;;;;37.25;31.75;;;;;25.74;51.72;101473.56;4931675;28;45653;-64
2022/07/23 10:10:03;;;;;;;;;40.50;34.00;;;;;25.69;52.24;101462.72;4932103;28;44966;-66
2022/07/23 10:14:56;;;;;;;;;39.50;30.25;;;;;25.80;51.72;101458.81;4932226;28;45176;-65
2022/07/23 10:17:22;;;;;;;;;36.00;32.50;;;;;25.81;51.82;101457.88;4942599;28;45135;-62
2022/07/23 10:19:47;;;;;;;;;41.25;29.75;;;;;25.78;52.04;101456.09;4937347;28;45187;-64
2022/07/23 10:22:18;;;;;;;;;33.50;31.25;;;;;25.48;52.39;101422.22;4942193;28;45818;-66
2022/07/23 10:25:09;;;;;;;;;44.25;33.75;;;;;25.59;53.08;101455.69;4933570;28;45119;-65
2022/07/23 10:28:09;;;;;;;;;30.25;27.75;;;;;25.75;52.54;101461.66;4932802;28;45655;-65
2022/07/23 10:31:09;;;;;;;;;35.25;31.25;;;;;25.79;52.39;101466.13;4934906;28;45064;-64
2022/07/23 10:34:02;;;;;;;;;51.50;40.50;;;;;25.78;52.63;101460.69;4932618;28;45093;-63
2022/07/23 10:36:36;;;;;;;;;29.50;25.00;;;;;25.83;52.25;101462.34;4933364;28;45066;-63
2022/07/23 10:39:14;;;;;;;;;29.25;28.00;;;;;25.89;51.95;101464.06;4932817;28;45736;-64
2022/07/23 10:41:40;;;;;;;;;41.25;33.50;;;;;25.90;51.94;101468.56;4932854;28;45021;-64
2022/07/23 10:44:11;;;;;;;;;45.00;32.25;;;;;25.92;51.92;101466.72;4932969;28;44881;-65
2022/07/23 10:49:41;;;;;;;;;27.75;23.00;;;;;25.85;51.83;101459.56;4931016;28;45349;-66
2022/07/23 10:52:17;;;;;;;;;35.75;31.00;;;;;25.97;51.55;101483.94;4940979;28;45345;-63
2022/07/23 10:54:49;;;;;;;;;40.75;28.50;;;;;26.00;51.35;101482.94;4930600;28;44941;-62
2022/07/23 10:57:15;;;;;;;;;30.25;26.00;;;;;26.05;51.61;101484.66;4930027;28;45128;-65
2022/07/23 11:00:15;;;;;;;;;33.50;31.25;;;;;26.17;51.23;101485.22;4931002;28;45201;-63
2022/07/23 11:02:42;;;;;;;;;32.75;29.75;;;;;26.30;50.62;101494.94;4930248;28;45032;-64
2022/07/23 11:05:10;;;;;;;;;33.25;29.25;;;;;26.42;50.15;101501.91;4930722;28;45271;-64
2022/07/23 11:07:56;;;;;;;;;28.25;28.25;;;;;26.48;50.27;101505.38;4930200;28;45282;-65
2022/07/23 11:10:38;;;;;;;;;34.25;30.75;;;;;26.30;50.41;101465.69;4931306;28;45372;-62
2022/07/23 11:13:22;;;;;;;;;36.25;28.50;;;;;26.53;49.94;101502.53;4932060;28;45083;-65